createdAt,value
2022-12-26T00:01:31.871Z,41.78
2022-12-26T00:04:02.163Z,41.71
2022-12-26T00:06:31.838Z,41.63
2022-12-26T00:09:00.776Z,41.60
2022-12-26T00:11:29.504Z,41.67
2022-12-26T00:13:58.973Z,41.62
2022-12-26T00:16:27.867Z,41.64
2022-12-26T00:18:56.729Z,41.54
2022-12-26T00:21:27.633Z,41.64
2022-12-26T00:23:56.817Z,41.53
2022-12-26T00:26:26.817Z,41.61
2022-12-26T00:28:55.835Z,41.63
2022-12-26T00:31:26.751Z,41.67
2022-12-26T00:33:55.660Z,41.63
2022-12-26T00:36:28.210Z,41.46
2022-12-26T00:38:57.421Z,41.65
2022-12-26T00:41:25.977Z,41.53
2022-12-26T00:43:54.703Z,41.53
2022-12-26T00:46:23.449Z,41.47
2022-12-26T00:48:52.029Z,41.52
2022-12-26T00:51:20.743Z,41.56
2022-12-26T00:53:50.855Z,41.47
2022-12-26T00:56:19.377Z,41.45
2022-12-26T00:58:47.906Z,41.52
2022-12-26T01:01:18.485Z,41.55
2022-12-26T01:03:47.829Z,41.45
2022-12-26T01:06:16.567Z,41.49
2022-12-26T01:08:45.280Z,41.35
2022-12-26T01:11:16.260Z,41.40
2022-12-26T01:13:44.950Z,41.47
2022-12-26T01:16:13.607Z,41.40
2022-12-26T01:18:42.231Z,41.36
2022-12-26T01:21:12.263Z,41.41
2022-12-26T01:23:40.855Z,41.46
2022-12-26T01:26:17.405Z,41.39
2022-12-26T01:28:49.694Z,41.42
2022-12-26T01:31:18.363Z,41.31
2022-12-26T01:33:47.074Z,41.30
2022-12-26T01:36:15.851Z,41.38
2022-12-26T01:38:44.384Z,41.34
2022-12-26T01:41:20.274Z,41.38
2022-12-26T01:43:55.978Z,41.34
2022-12-26T01:46:28.872Z,41.32
2022-12-26T01:48:59.627Z,41.29
2022-12-26T01:51:29.810Z,41.36
2022-12-26T01:54:40.534Z,41.14
2022-12-26T01:56:47.746Z,41.47
2022-12-26T01:59:20.478Z,41.35
2022-12-26T02:01:49.617Z,41.29
2022-12-26T02:04:39.494Z,41.25
2022-12-26T02:07:08.177Z,41.23
2022-12-26T02:09:36.830Z,41.35
2022-12-26T02:12:36.319Z,41.27
2022-12-26T02:14:59.877Z,41.30
2022-12-26T02:17:28.532Z,41.27
2022-12-26T02:20:02.100Z,41.34
2022-12-26T02:23:03.691Z,41.24
2022-12-26T02:26:05.905Z,41.21
2022-12-26T02:28:56.146Z,41.20
2022-12-26T02:31:28.122Z,41.30
2022-12-26T02:34:02.634Z,41.23
2022-12-26T02:36:58.478Z,41.13
2022-12-26T02:39:46.770Z,41.36
2022-12-26T02:42:24.538Z,41.21
2022-12-26T02:45:12.871Z,41.12
2022-12-26T02:47:46.447Z,41.25
2022-12-26T02:50:36.534Z,41.22
2022-12-26T02:53:27.662Z,41.20
2022-12-26T02:56:17.845Z,41.22
2022-12-26T02:59:12.127Z,41.17
2022-12-26T03:01:59.825Z,41.22
2022-12-26T03:04:48.513Z,41.05
2022-12-26T03:07:37.274Z,41.12
2022-12-26T03:10:26.116Z,41.03
2022-12-26T03:13:14.276Z,41.18
2022-12-26T03:16:04.386Z,41.05
2022-12-26T03:18:58.295Z,41.08
2022-12-26T03:21:25.348Z,41.02
2022-12-26T03:23:55.349Z,41.15
2022-12-26T03:26:41.988Z,41.06
2022-12-26T03:29:30.096Z,41.08
2022-12-26T03:31:58.846Z,41.17
2022-12-26T03:34:28.387Z,41.05
2022-12-26T03:37:49.328Z,41.14
2022-12-26T03:40:58.856Z,41.13
2022-12-26T03:43:58.025Z,41.04
2022-12-26T03:46:50.669Z,41.04
2022-12-26T03:49:40.689Z,41.00
2022-12-26T03:52:34.479Z,41.36
2022-12-26T03:55:25.231Z,41.08
2022-12-26T03:58:13.663Z,41.16
2022-12-26T04:00:59.135Z,41.12
2022-12-26T04:03:45.132Z,40.98
2022-12-26T04:06:35.000Z,41.02
2022-12-26T04:09:26.856Z,41.02
2022-12-26T04:12:13.162Z,41.14
2022-12-26T04:15:21.584Z,40.85
2022-12-26T04:18:10.575Z,40.85
2022-12-26T04:20:51.236Z,41.03
2022-12-26T04:23:40.358Z,40.95
2022-12-26T04:26:30.747Z,41.03
2022-12-26T04:29:16.948Z,41.00
2022-12-26T04:32:05.427Z,41.01
2022-12-26T04:34:58.174Z,41.06
2022-12-26T04:37:44.773Z,40.94
2022-12-26T04:40:35.559Z,41.02
2022-12-26T04:43:48.708Z,40.97
2022-12-26T04:46:11.621Z,40.97
2022-12-26T04:49:01.826Z,40.99
2022-12-26T04:51:30.434Z,40.96
2022-12-26T04:53:59.038Z,40.96
2022-12-26T04:56:27.728Z,41.02
2022-12-26T04:58:57.754Z,41.04
2022-12-26T05:01:44.298Z,40.88
2022-12-26T05:04:32.242Z,40.94
2022-12-26T05:07:18.488Z,40.93
2022-12-26T05:09:47.376Z,40.94
2022-12-26T05:12:16.233Z,40.99
2022-12-26T05:14:46.206Z,40.97
2022-12-26T05:17:32.656Z,40.98
2022-12-26T05:20:19.047Z,40.89
2022-12-26T05:23:05.332Z,40.98
2022-12-26T05:26:00.606Z,40.90
2022-12-26T05:28:44.538Z,40.99
2022-12-26T05:31:15.793Z,40.88
2022-12-26T05:34:02.043Z,40.96
2022-12-26T05:36:32.924Z,40.96
2022-12-26T05:39:02.149Z,41.01
2022-12-26T05:41:30.718Z,40.95
2022-12-26T05:43:59.465Z,40.91
2022-12-26T05:46:29.468Z,40.95
2022-12-26T05:48:58.368Z,40.98
2022-12-26T05:51:26.949Z,40.85
2022-12-26T05:53:55.645Z,40.91
2022-12-26T05:56:24.303Z,40.95
2022-12-26T05:58:55.916Z,41.01
2022-12-26T06:01:25.194Z,40.94
2022-12-26T06:03:56.613Z,40.96
2022-12-26T06:06:26.021Z,40.96
2022-12-26T06:08:56.168Z,40.87
2022-12-26T06:11:25.932Z,40.94
2022-12-26T06:13:54.729Z,40.86
2022-12-26T06:16:23.370Z,40.87
2022-12-26T06:18:52.218Z,40.94
2022-12-26T06:21:22.340Z,40.95
2022-12-26T06:23:51.511Z,40.95
2022-12-26T06:26:20.464Z,40.87
2022-12-26T06:28:49.065Z,40.88
2022-12-26T06:31:21.416Z,40.77
2022-12-26T06:33:50.679Z,40.90
2022-12-26T06:36:22.064Z,40.82
2022-12-26T06:38:50.772Z,40.85
2022-12-26T06:41:20.716Z,40.83
2022-12-26T06:43:49.302Z,40.77
2022-12-26T06:46:19.600Z,40.99
2022-12-26T06:48:48.399Z,40.86
2022-12-26T06:51:18.928Z,40.90
2022-12-26T06:53:49.385Z,40.89
2022-12-26T06:56:19.154Z,40.79
2022-12-26T06:58:47.772Z,40.82
2022-12-26T07:01:17.803Z,40.88
2022-12-26T07:03:51.739Z,40.72
2022-12-26T07:06:24.847Z,40.88
2022-12-26T07:08:55.746Z,40.70
2022-12-26T07:11:25.497Z,40.86
2022-12-26T07:13:54.893Z,40.88
2022-12-26T07:16:23.579Z,40.96
2022-12-26T07:18:54.398Z,40.96
2022-12-26T07:21:23.274Z,40.87
2022-12-26T07:23:52.109Z,40.86
2022-12-26T07:26:22.355Z,40.92
2022-12-26T07:28:53.732Z,40.89
2022-12-26T07:31:22.674Z,40.84
2022-12-26T07:33:51.568Z,40.94
2022-12-26T07:36:20.127Z,40.83
2022-12-26T07:38:48.999Z,41.28
2022-12-26T07:41:46.617Z,41.02
2022-12-26T07:44:16.775Z,40.91
2022-12-26T07:46:46.797Z,40.83
2022-12-26T07:49:15.745Z,40.90
2022-12-26T07:51:44.638Z,41.02
2022-12-26T07:54:13.747Z,40.99
2022-12-26T07:56:42.555Z,40.90
2022-12-26T07:59:16.550Z,41.06
2022-12-26T08:01:45.743Z,40.92
2022-12-26T08:04:14.500Z,41.11
2022-12-26T08:06:43.144Z,41.02
2022-12-26T08:09:16.084Z,41.20
2022-12-26T08:11:45.536Z,41.20
2022-12-26T08:14:14.387Z,41.21
2022-12-26T08:16:48.124Z,40.94
2022-12-26T08:19:20.370Z,41.13
2022-12-26T08:21:48.934Z,41.18
2022-12-26T08:24:17.519Z,41.03
2022-12-26T08:26:46.230Z,41.03
2022-12-26T08:29:14.802Z,41.12
2022-12-26T08:31:44.895Z,41.15
2022-12-26T08:34:13.611Z,41.12
2022-12-26T08:36:42.443Z,41.01
2022-12-26T08:39:11.118Z,41.07
2022-12-26T08:41:40.109Z,41.24
2022-12-26T08:44:26.942Z,41.22
2022-12-26T08:46:57.480Z,41.48
2022-12-26T08:49:26.117Z,41.20
2022-12-26T08:51:54.712Z,41.46
2022-12-26T08:54:23.322Z,41.35
2022-12-26T08:56:51.883Z,41.45
2022-12-26T08:59:20.742Z,41.36
2022-12-26T09:01:49.621Z,41.43
2022-12-26T09:04:19.653Z,41.43
2022-12-26T09:06:48.260Z,41.29
2022-12-26T09:09:16.902Z,41.43
2022-12-26T09:11:45.631Z,41.43
2022-12-26T09:14:14.394Z,41.32
2022-12-26T09:16:50.411Z,42.14
2022-12-26T09:19:22.051Z,41.65
2022-12-26T09:22:11.246Z,42.59
2022-12-26T09:24:39.770Z,42.18
2022-12-26T09:27:08.659Z,42.05
2022-12-26T09:29:38.274Z,42.36
2022-12-26T09:32:07.229Z,42.10
2022-12-26T09:34:37.239Z,42.05
2022-12-26T09:37:09.883Z,42.10
2022-12-26T09:45:01.124Z,42.28
2022-12-26T13:33:22.643Z,43.74
2022-12-26T14:51:33.864Z,42.56
2022-12-26T14:54:50.902Z,43.01
2022-12-26T14:57:48.896Z,43.04
2022-12-26T15:00:35.879Z,43.04
2022-12-26T15:03:49.646Z,43.20
2022-12-26T15:07:04.484Z,43.09
2022-12-26T15:10:32.093Z,43.37
2022-12-26T15:13:34.180Z,43.41
2022-12-26T15:16:41.829Z,43.45
2022-12-26T15:19:48.465Z,43.27
2022-12-26T15:23:06.744Z,43.40
2022-12-26T15:26:32.702Z,43.10
2022-12-26T15:29:26.921Z,43.23
2022-12-26T15:32:05.494Z,43.24
2022-12-26T15:34:58.024Z,43.16
2022-12-26T15:37:42.839Z,43.23
2022-12-26T15:40:16.213Z,43.23
2022-12-26T15:43:00.763Z,43.21
2022-12-26T15:45:41.276Z,43.07
2022-12-26T15:48:27.363Z,43.00
2022-12-26T15:50:59.531Z,43.08
2022-12-26T15:53:42.512Z,43.05
2022-12-26T15:56:43.085Z,43.19
2022-12-26T16:00:02.060Z,43.26
2022-12-26T16:02:39.938Z,43.22
2022-12-26T16:05:36.335Z,43.13
2022-12-26T16:08:39.608Z,43.27
2022-12-26T16:11:17.584Z,43.13
2022-12-26T16:13:56.236Z,43.14
2022-12-26T16:16:27.297Z,43.42
2022-12-26T16:18:57.463Z,43.20
2022-12-26T16:21:46.203Z,43.34
2022-12-26T16:24:15.458Z,43.30
2022-12-26T16:26:45.475Z,43.31
2022-12-26T16:29:18.665Z,43.28
2022-12-26T16:31:47.519Z,43.24
2022-12-26T16:34:20.042Z,43.25
2022-12-26T16:36:49.259Z,43.33
2022-12-26T16:39:22.915Z,43.51
2022-12-26T16:42:04.234Z,43.24
2022-12-26T16:44:38.341Z,43.64
2022-12-26T16:47:08.619Z,43.61
2022-12-26T16:49:38.766Z,43.79
2022-12-26T16:52:08.148Z,43.68
2022-12-26T16:54:42.468Z,43.69
2022-12-26T16:57:14.611Z,43.92
2022-12-26T16:59:50.051Z,43.71
2022-12-26T17:02:23.221Z,43.85
2022-12-26T17:05:00.382Z,43.82
2022-12-26T17:07:29.157Z,43.92
2022-12-26T17:09:58.934Z,43.73
2022-12-26T17:12:29.700Z,43.91
2022-12-26T17:14:58.567Z,43.73
2022-12-26T17:17:33.872Z,43.84
2022-12-26T17:20:36.871Z,43.68
2022-12-26T17:23:35.361Z,44.23
2022-12-26T17:26:22.552Z,43.73
2022-12-26T17:28:54.295Z,43.96
2022-12-26T17:31:31.795Z,43.81
2022-12-26T17:34:00.770Z,43.69
2022-12-26T17:37:16.589Z,43.89
2022-12-26T17:39:24.409Z,44.39
2022-12-26T17:41:54.093Z,44.27
2022-12-26T17:44:37.257Z,44.28
2022-12-26T17:47:17.116Z,44.23
2022-12-26T17:49:47.964Z,44.13
2022-12-26T17:52:21.886Z,43.97
2022-12-26T17:54:50.705Z,44.46
2022-12-26T18:00:00.431Z,44.93
2022-12-26T18:02:31.032Z,44.94
2022-12-26T18:04:59.756Z,44.71
2022-12-26T18:07:31.829Z,44.61
2022-12-26T18:10:00.818Z,44.42
2022-12-26T18:12:29.394Z,44.91
2022-12-26T18:15:01.993Z,45.16
2022-12-26T18:17:33.056Z,44.56
2022-12-26T18:20:01.880Z,44.98
2022-12-26T18:22:31.901Z,44.62
2022-12-26T18:25:00.497Z,44.32
2022-12-26T18:27:31.510Z,44.80
2022-12-26T18:30:00.234Z,44.60
2022-12-26T18:32:30.591Z,44.31
2022-12-26T18:34:59.243Z,44.42
2022-12-26T18:37:29.902Z,45.10
2022-12-26T18:40:02.613Z,44.38
2022-12-26T18:42:31.351Z,45.40
2022-12-26T18:44:59.962Z,44.90
2022-12-26T18:47:29.821Z,45.56
2022-12-26T18:49:58.559Z,45.65
2022-12-26T18:52:27.275Z,45.04
2022-12-26T18:54:55.910Z,45.88
2022-12-26T18:57:26.706Z,45.43
2022-12-26T18:59:55.570Z,45.31
2022-12-26T19:02:24.184Z,45.20
2022-12-26T19:04:53.013Z,45.23
2022-12-26T19:07:23.637Z,45.19
2022-12-26T19:09:56.840Z,45.20
2022-12-26T19:12:27.006Z,45.17
2022-12-26T19:14:56.937Z,45.20
2022-12-26T19:17:25.561Z,45.28
2022-12-26T19:19:54.267Z,45.26
2022-12-26T19:22:23.137Z,45.23
2022-12-26T19:24:53.594Z,45.19
2022-12-26T19:27:22.707Z,45.25
2022-12-26T19:29:52.617Z,45.08
2022-12-26T19:32:21.459Z,45.04
2022-12-26T19:34:50.055Z,44.97
2022-12-26T19:37:18.966Z,45.12
2022-12-26T19:39:47.553Z,45.11
2022-12-26T19:42:16.242Z,45.00
2022-12-26T19:44:44.942Z,44.94
2022-12-26T19:47:15.045Z,45.03
2022-12-26T19:49:43.747Z,44.81
2022-12-26T19:52:12.335Z,45.01
2022-12-26T19:54:40.928Z,46.12
2022-12-26T19:57:09.548Z,45.06
2022-12-26T19:59:38.084Z,45.18
2022-12-26T20:02:06.918Z,45.30
2022-12-26T20:04:36.942Z,45.23
2022-12-26T20:07:05.637Z,45.47
2022-12-26T20:09:34.341Z,45.06
2022-12-26T20:12:03.063Z,44.94
2022-12-26T20:14:32.668Z,45.04
2022-12-26T20:17:06.707Z,44.93
2022-12-26T20:19:37.373Z,44.80
2022-12-26T20:22:06.210Z,44.94
2022-12-26T20:24:35.853Z,44.99
2022-12-26T20:27:04.589Z,44.96
2022-12-26T20:29:33.319Z,45.02
2022-12-26T20:32:01.988Z,44.70
2022-12-26T20:34:30.559Z,45.42
2022-12-26T20:37:00.524Z,44.75
2022-12-26T20:39:29.111Z,45.09
2022-12-26T20:41:58.134Z,45.32
2022-12-26T20:44:26.824Z,45.47
2022-12-26T20:46:55.452Z,45.59
2022-12-26T20:49:24.921Z,45.48
2022-12-26T20:51:53.516Z,45.98
2022-12-26T20:54:24.816Z,46.63
2022-12-26T20:56:53.792Z,45.51
2022-12-26T20:59:26.067Z,45.95
2022-12-26T21:01:54.685Z,46.29
2022-12-26T21:04:24.059Z,46.16
2022-12-26T21:06:53.043Z,46.54
2022-12-26T21:09:23.150Z,46.80
2022-12-26T21:11:51.690Z,46.21
2022-12-26T21:14:21.733Z,47.18
2022-12-26T21:16:51.390Z,47.04
2022-12-26T21:19:20.312Z,47.73
2022-12-26T21:21:51.431Z,46.75
2022-12-26T21:24:23.765Z,46.60
2022-12-26T21:26:52.524Z,46.30
2022-12-26T21:29:23.363Z,45.96
2022-12-26T21:31:52.161Z,45.96
2022-12-26T21:34:22.177Z,45.69
2022-12-26T21:37:04.805Z,45.41
2022-12-26T21:39:35.640Z,45.09
2022-12-26T21:42:05.227Z,44.68
2022-12-26T21:44:33.776Z,44.43
2022-12-26T21:47:02.743Z,44.32
2022-12-26T21:49:31.605Z,43.94
2022-12-26T21:52:00.319Z,43.83
2022-12-26T21:54:49.080Z,43.67
2022-12-26T21:57:19.734Z,43.64
2022-12-26T21:59:57.444Z,43.30
2022-12-26T22:02:44.438Z,43.29
2022-12-26T22:05:13.475Z,42.96
2022-12-26T22:07:43.231Z,43.11
2022-12-26T22:10:34.752Z,42.91
2022-12-26T22:13:04.264Z,42.74
2022-12-26T22:15:50.444Z,42.68
2022-12-26T22:18:19.117Z,42.66
2022-12-26T22:20:47.643Z,42.63
2022-12-26T22:23:16.216Z,42.35
2022-12-26T22:25:44.843Z,42.45
2022-12-26T22:28:18.798Z,42.16
2022-12-26T22:30:51.018Z,42.03
2022-12-26T22:33:21.160Z,42.03
2022-12-26T22:35:49.813Z,42.09
2022-12-26T22:38:18.375Z,41.87
2022-12-26T22:40:55.754Z,41.74
2022-12-26T22:43:25.933Z,42.66
2022-12-26T22:45:54.553Z,42.75
2022-12-26T22:48:23.254Z,43.25
2022-12-26T22:50:54.295Z,42.49
2022-12-26T22:53:24.745Z,46.58
2022-12-26T22:55:57.510Z,46.73
2022-12-26T22:58:27.617Z,46.58
2022-12-26T23:00:56.449Z,46.82
2022-12-26T23:03:25.060Z,46.30
2022-12-26T23:05:54.625Z,46.61
2022-12-26T23:08:25.145Z,46.68
2022-12-26T23:10:54.404Z,46.53
2022-12-26T23:13:23.616Z,46.71
2022-12-26T23:15:57.489Z,46.65
2022-12-26T23:18:59.665Z,47.21
2022-12-26T23:21:39.806Z,46.76
2022-12-26T23:24:10.250Z,46.91
2022-12-26T23:26:38.842Z,46.69
2022-12-26T23:29:24.837Z,47.45
2022-12-26T23:31:54.811Z,47.22
2022-12-26T23:34:23.328Z,47.36
2022-12-26T23:36:51.851Z,47.36
2022-12-26T23:39:20.547Z,47.30
2022-12-26T23:41:49.062Z,47.29
2022-12-26T23:44:17.663Z,47.20
2022-12-26T23:46:46.361Z,47.04
2022-12-26T23:49:17.113Z,47.26
2022-12-26T23:51:46.877Z,46.88
2022-12-26T23:54:15.556Z,46.51
2022-12-26T23:56:44.140Z,46.83
2022-12-26T23:59:12.720Z,46.76
